Time;durP1;ratioP1;P1;durP2;ratioP2;P2;SDS_P1;SDS_P2;PMS_P1;PMS_P2;Temp;Humidity;BMP_temperature;BMP_pressure;BME280_temperature;BME280_humidity;BME280_pressure;Samples;Min_cycle;Max_cycle;Signal;HPM_P1;HPM_P2
2023/06/14 00:01:23;;;;;;;6.70;2.70;;;;;;;13.09;67.64;100206.64;109378;1254;61071;-64
2023/06/14 00:04:12;;;;;;;8.00;2.50;;;;;;;13.10;67.76;100209.98;109399;1254;72367;-64
2023/06/14 00:07:00;;;;;;;7.40;2.50;;;;;;;13.09;67.94;100210.35;109259;1254;67316;-66
2023/06/14 00:09:48;;;;;;;8.60;2.60;;;;;;;13.09;68.04;100201.44;109124;1254;71458;-65
2023/06/14 00:12:38;;;;;;;7.70;2.90;;;;;;;13.10;68.13;100204.45;109401;1254;56945;-64
2023/06/14 00:15:26;;;;;;;6.40;2.60;;;;;;;13.11;68.18;100201.67;109436;1254;58724;-65
2023/06/14 00:18:14;;;;;;;9.20;3.00;;;;;;;13.10;68.35;100202.96;109129;1254;70659;-63
2023/06/14 00:21:03;;;;;;;7.40;2.80;;;;;;;13.09;68.41;100197.77;109451;1254;66829;-65
2023/06/14 00:23:51;;;;;;;10.30;3.00;;;;;;;13.07;68.62;100194.02;109245;1254;72671;-65
2023/06/14 00:26:40;;;;;;;8.90;2.80;;;;;;;13.05;68.79;100188.13;109244;1254;58241;-64
2023/06/14 00:29:28;;;;;;;9.30;3.00;;;;;;;13.03;69.00;100187.23;109369;1254;59621;-67
2023/06/14 00:32:18;;;;;;;8.70;3.00;;;;;;;13.02;68.98;100182.18;109474;1254;70877;-66
2023/06/14 00:35:07;;;;;;;7.70;2.70;;;;;;;13.00;69.11;100182.19;109196;1253;66418;-63
2023/06/14 00:37:56;;;;;;;8.40;2.70;;;;;;;12.96;69.35;100181.73;109412;1254;71700;-64
2023/06/14 00:40:44;;;;;;;9.20;3.00;;;;;;;12.94;69.44;100183.91;109401;1254;57121;-65
2023/06/14 00:43:34;;;;;;;8.10;3.00;;;;;;;12.90;69.80;100180.66;109343;1254;60034;-65
2023/06/14 00:46:22;;;;;;;9.60;3.20;;;;;;;12.86;70.03;100182.95;109023;1257;70657;-65
2023/06/14 00:49:11;;;;;;;8.70;2.70;;;;;;;12.83;70.31;100187.87;108986;1257;67731;-66
2023/06/14 00:52:00;;;;;;;7.60;2.80;;;;;;;12.79;70.61;100190.98;109137;1257;72744;-63
2023/06/14 00:54:48;;;;;;;9.50;2.90;;;;;;;12.76;70.97;100188.23;109064;1257;56944;-64
2023/06/14 00:57:37;;;;;;;7.10;2.70;;;;;;;12.75;71.50;100187.84;108355;1257;1003007;-66
2023/06/14 01:00:28;;;;;;;10.70;3.10;;;;;;;12.72;71.42;100183.05;109111;1257;72926;-63
2023/06/14 01:03:19;;;;;;;9.80;3.10;;;;;;;12.70;71.65;100183.40;109131;1257;66624;-64
2023/06/14 01:06:54;;;;;;;9.10;2.60;;;;;;;12.68;71.87;100181.42;109072;1257;73871;-64
2023/06/14 01:10:20;;;;;;;6.90;2.70;;;;;;;12.69;72.69;100182.10;109118;1257;59755;-64
2023/06/14 01:13:33;;;;;;;8.50;2.80;;;;;;;12.70;73.71;100183.80;109171;1257;60046;-67
2023/06/14 01:16:21;;;;;;;7.70;3.10;;;;;;;12.72;74.49;100183.98;109116;1254;72478;-66
2023/06/14 01:19:13;;;;;;;8.30;2.70;;;;;;;12.74;74.66;100178.79;109277;1254;66361;-66
2023/06/14 01:22:02;;;;;;;9.60;2.60;;;;;;;12.77;74.85;100178.58;109285;1254;72327;-64
2023/06/14 01:24:50;;;;;;;8.70;2.60;;;;;;;12.78;74.96;100174.57;109399;1254;57676;-65
2023/06/14 01:27:38;;;;;;;7.50;2.80;;;;;;;12.78;75.35;100176.85;109245;1254;61384;-65
2023/06/14 01:30:29;;;;;;;7.00;2.90;;;;;;;12.78;75.47;100171.89;109430;1254;71046;-66
2023/06/14 01:33:23;;;;;;;9.20;3.20;;;;;;;12.76;75.45;100169.75;109359;1254;66578;-65
2023/06/14 01:36:12;;;;;;;9.40;3.00;;;;;;;12.74;75.48;100169.02;109429;1254;71444;-67
2023/06/14 01:39:01;;;;;;;8.30;3.20;;;;;;;12.72;75.66;100167.42;109326;1254;57958;-64
2023/06/14 01:41:51;;;;;;;9.90;2.90;;;;;;;12.70;75.88;100163.44;109463;1254;60072;-65
2023/06/14 01:44:43;;;;;;;8.20;2.80;;;;;;;12.69;76.09;100162.89;109343;1254;72124;-67
2023/06/14 01:47:31;;;;;;;9.50;2.90;;;;;;;12.67;76.22;100161.11;109405;1254;68218;-64
2023/06/14 01:50:21;;;;;;;9.00;3.20;;;;;;;12.64;76.35;100158.12;109344;1254;72389;-69
2023/06/14 01:53:10;;;;;;;9.10;2.90;;;;;;;12.59;76.51;100158.31;109435;1254;56839;-64
2023/06/14 01:55:58;;;;;;;6.80;2.90;;;;;;;12.55;77.22;100158.64;109270;1255;60619;-68
2023/06/14 01:58:46;;;;;;;8.40;2.80;;;;;;;12.49;78.05;100154.02;109205;1256;72451;-68
2023/06/14 02:01:36;;;;;;;8.20;3.00;;;;;;;12.47;78.94;100160.49;109220;1255;67953;-66
2023/06/14 02:04:24;;;;;;;10.90;2.90;;;;;;;12.44;78.94;100156.58;109380;1255;73894;-66
2023/06/14 02:07:12;;;;;;;8.90;3.20;;;;;;;12.44;79.17;100159.46;109329;1256;60790;-63
2023/06/14 02:10:03;;;;;;;8.50;3.10;;;;;;;12.43;79.16;100159.69;109269;1255;59064;-65
2023/06/14 02:12:50;;;;;;;9.20;3.10;;;;;;;12.39;79.36;100149.16;109273;1255;72781;-65
2023/06/14 02:15:38;;;;;;;8.20;2.90;;;;;;;12.43;79.77;100155.95;109325;1255;66765;-64
2023/06/14 02:18:27;;;;;;;9.30;3.10;;;;;;;12.43;80.01;100155.41;109271;1255;72847;-63
2023/06/14 02:21:15;;;;;;;10.10;3.90;;;;;;;12.44;80.30;100154.30;109232;1255;57579;-67
2023/06/14 02:24:06;;;;;;;19.10;9.70;;;;;;;12.44;80.48;100154.95;109226;1256;60295;-67
2023/06/14 02:26:55;;;;;;;32.80;14.70;;;;;;;12.44;80.71;100155.85;109431;1255;72012;-63
2023/06/14 02:29:43;;;;;;;88.90;28.50;;;;;;;12.44;81.11;100157.45;109241;1255;68012;-65
2023/06/14 02:32:31;;;;;;;74.00;22.80;;;;;;;12.45;81.49;100161.50;109381;1256;71459;-65
2023/06/14 02:35:20;;;;;;;34.20;11.60;;;;;;;12.47;81.95;100162.41;109357;1255;59296;-65
2023/06/14 02:38:08;;;;;;;18.90;6.60;;;;;;;12.49;82.69;100163.64;109363;1256;60437;-64
2023/06/14 02:40:56;;;;;;;20.80;6.50;;;;;;;12.53;82.83;100164.56;109327;1255;70708;-66
2023/06/14 02:43:43;;;;;;;23.50;7.30;;;;;;;12.59;82.46;100156.92;109196;1255;66703;-66
2023/06/14 02:46:32;;;;;;;20.20;6.70;;;;;;;12.68;82.22;100160.79;109246;1256;71870;-64
2023/06/14 02:49:20;;;;;;;12.70;5.50;;;;;;;12.77;82.30;100165.01;109219;1256;57938;-67
2023/06/14 02:52:08;;;;;;;15.10;5.10;;;;;;;12.86;82.18;100161.80;109255;1256;60107;-66
2023/06/14 02:54:56;;;;;;;10.40;4.90;;;;;;;12.95;82.31;100159.57;109336;1254;72322;-66
2023/06/14 02:57:44;;;;;;;11.30;4.80;;;;;;;13.05;82.08;100158.55;109275;1254;67037;-64
2023/06/14 03:00:32;;;;;;;9.30;4.00;;;;;;;13.17;81.67;100159.88;109386;1254;71139;-64
2023/06/14 03:03:24;;;;;;;8.70;3.70;;;;;;;13.26;81.38;100160.10;109389;1256;58035;-67
2023/06/14 03:06:16;;;;;;;10.10;4.00;;;;;;;13.36;81.09;100157.34;109454;1253;58756;-67
2023/06/14 03:09:05;;;;;;;10.80;3.80;;;;;;;13.44;80.93;100155.88;109354;1254;72959;-65
2023/06/14 03:11:55;;;;;;;9.20;3.30;;;;;;;13.51;80.63;100158.55;109329;1254;67728;-66
2023/06/14 03:14:45;;;;;;;7.90;3.20;;;;;;;13.57;80.36;100154.92;109255;1254;72417;-63
2023/06/14 03:17:38;;;;;;;10.20;3.70;;;;;;;13.65;80.00;100153.55;109313;1257;57838;-67
2023/06/14 03:20:29;;;;;;;9.10;3.40;;;;;;;13.67;79.67;100157.06;109354;1259;60202;-64
2023/06/14 03:23:17;;;;;;;10.10;3.40;;;;;;;13.72;79.49;100156.84;109332;1254;72299;-63
2023/06/14 03:26:06;;;;;;;7.80;3.10;;;;;;;13.77;79.26;100157.96;109222;1254;67657;-66
2023/06/14 03:28:54;;;;;;;12.50;3.30;;;;;;;13.81;79.19;100156.70;109364;1254;71412;-65
2023/06/14 03:32:02;;;;;;;10.40;3.60;;;;;;;13.87;79.18;100158.67;109206;1254;59282;-68
2023/06/14 03:34:59;;;;;;;7.60;3.30;;;;;;;13.92;78.96;100161.64;109206;1254;59216;-65
2023/06/14 03:37:51;;;;;;;10.80;4.20;;;;;;;13.98;78.89;100162.75;109158;1254;70991;-70
2023/06/14 03:40:39;;;;;;;10.40;4.60;;;;;;;14.02;78.93;100163.38;109235;1254;66309;-67
2023/06/14 03:43:29;;;;;;;9.90;3.60;;;;;;;14.09;79.06;100168.85;109107;1254;73774;-65
2023/06/14 03:46:18;;;;;;;10.00;4.20;;;;;;;14.14;78.79;100168.54;109253;1254;58409;-67
2023/06/14 03:49:06;;;;;;;10.80;4.00;;;;;;;14.22;78.75;100169.84;109417;1254;58854;-69
2023/06/14 03:51:54;;;;;;;11.10;3.90;;;;;;;14.32;78.96;100170.17;108951;1257;70022;-67
2023/06/14 03:54:44;;;;;;;8.60;3.80;;;;;;;14.43;78.40;100171.48;109020;1257;68117;-67
2023/06/14 03:57:35;;;;;;;9.50;4.00;;;;;;;14.54;78.22;100165.47;108958;1257;72481;-65
2023/06/14 04:00:24;;;;;;;10.60;3.50;;;;;;;14.66;77.93;100170.10;108979;1257;57239;-69
2023/06/14 04:03:16;;;;;;;11.20;3.80;;;;;;;14.76;77.56;100168.45;109063;1257;60524;-66
2023/06/14 04:06:06;;;;;;;9.30;3.60;;;;;;;14.85;77.20;100170.46;109099;1257;69836;-68
2023/06/14 04:08:54;;;;;;;9.80;4.50;;;;;;;14.94;76.96;100169.04;109013;1257;69175;-68
2023/06/14 04:11:43;;;;;;;9.90;3.90;;;;;;;15.03;76.77;100169.65;108982;1257;70444;-67
2023/06/14 04:14:32;;;;;;;10.50;3.60;;;;;;;15.13;76.61;100171.05;108873;1264;60572;-68
2023/06/14 04:17:21;;;;;;;10.60;3.60;;;;;;;15.23;76.33;100167.75;109056;1257;58901;-68
2023/06/14 04:20:10;;;;;;;10.10;3.40;;;;;;;15.37;76.08;100174.50;108970;1257;70601;-70
2023/06/14 04:23:18;;;;;;;10.80;3.30;;;;;;;15.49;75.60;100174.95;109066;1255;67201;-70
2023/06/14 04:26:10;;;;;;;9.60;3.40;;;;;;;15.66;75.07;100171.91;109171;1255;73308;-68
2023/06/14 04:29:02;;;;;;;11.00;3.60;;;;;;;15.84;74.56;100167.27;109218;1255;59211;-71
2023/06/14 04:31:54;;;;;;;8.00;3.40;;;;;;;16.05;73.75;100163.80;109326;1256;60167;-70
2023/06/14 04:34:44;;;;;;;12.10;3.20;;;;;;;16.21;73.12;100160.42;109242;1255;70984;-66
2023/06/14 04:37:33;;;;;;;8.90;3.40;;;;;;;16.42;72.09;100164.61;109192;1255;67718;-73
2023/06/14 04:40:21;;;;;;;9.20;3.50;;;;;;;16.68;71.02;100169.70;109187;1255;71350;-69
2023/06/14 04:43:12;;;;;;;8.60;3.30;;;;;;;17.08;69.47;100172.47;109280;1255;57998;-73
2023/06/14 04:46:03;;;;;;;8.30;3.30;;;;;;;17.51;68.10;100173.31;108988;1258;61614;-73
2023/06/14 04:48:51;;;;;;;10.30;3.40;;;;;;;17.95;66.70;100168.88;109012;1258;72156;-71
2023/06/14 04:51:40;;;;;;;9.90;3.80;;;;;;;18.17;65.51;100164.56;109013;1258;66468;-72
2023/06/14 04:54:31;;;;;;;11.10;5.00;;;;;;;18.44;64.65;100160.95;108990;1258;72887;-73
2023/06/14 04:57:25;;;;;;;11.10;3.90;;;;;;;18.74;63.26;100161.82;108928;1258;58522;-71
2023/06/14 05:00:17;;;;;;;8.60;3.40;;;;;;;19.08;62.15;100158.55;108944;1258;58953;-69
2023/06/14 05:03:06;;;;;;;11.10;4.20;;;;;;;19.34;60.87;100166.98;108907;1258;71236;-70
2023/06/14 05:05:54;;;;;;;9.70;3.30;;;;;;;19.45;59.53;100167.95;109017;1258;69044;-71
2023/06/14 05:08:42;;;;;;;15.50;3.40;;;;;;;19.57;58.77;100170.11;109009;1261;71308;-70
2023/06/14 05:11:31;;;;;;;13.00;3.90;;;;;;;19.65;58.53;100174.13;109190;1258;57951;-73
2023/06/14 05:14:20;;;;;;;9.40;3.90;;;;;;;19.74;58.43;100172.20;109030;1258;59341;-71
2023/06/14 05:17:09;;;;;;;9.20;3.70;;;;;;;19.88;57.74;100171.77;109256;1255;71752;-73
2023/06/14 05:19:57;;;;;;;10.40;3.40;;;;;;;19.96;56.92;100173.80;109099;1255;66709;-69
2023/06/14 05:22:51;;;;;;;13.80;3.70;;;;;;;20.06;56.79;100174.94;109107;1255;71380;-73
2023/06/14 05:25:44;;;;;;;8.70;4.00;;;;;;;20.33;56.13;100163.92;109147;1255;56876;-71
2023/06/14 05:28:36;;;;;;;10.00;3.60;;;;;;;20.98;54.25;100174.27;109247;1256;59751;-74
2023/06/14 05:31:27;;;;;;;12.70;3.50;;;;;;;21.57;52.52;100170.50;109131;1255;72351;-71
2023/06/14 05:34:16;;;;;;;11.20;3.50;;;;;;;22.13;50.60;100166.81;109303;1255;67931;-70
2023/06/14 05:37:04;;;;;;;10.20;3.40;;;;;;;22.52;47.48;100167.52;109125;1255;71711;-75
2023/06/14 05:39:53;;;;;;;9.70;3.70;;;;;;;22.94;47.39;100164.05;109147;1255;58245;-70
2023/06/14 05:42:41;;;;;;;9.50;3.30;;;;;;;23.38;46.72;100169.27;109101;1259;59006;-72
2023/06/14 05:45:29;;;;;;;9.80;3.50;;;;;;;23.92;44.63;100168.52;109361;1255;70699;-65
2023/06/14 05:48:18;;;;;;;10.10;4.20;;;;;;;24.58;42.12;100171.67;109240;1255;68770;-69
2023/06/14 05:51:08;;;;;;;9.60;3.90;;;;;;;24.61;41.12;100170.92;109222;1256;72677;-67
2023/06/14 05:53:56;;;;;;;11.90;4.00;;;;;;;24.40;42.23;100174.84;109161;1255;57120;-67
2023/06/14 05:56:45;;;;;;;13.30;4.30;;;;;;;24.19;42.40;100172.83;109340;1255;59119;-71
2023/06/14 05:59:33;;;;;;;11.70;3.90;;;;;;;23.88;42.56;100175.77;109167;1256;72064;-73
2023/06/14 06:02:21;;;;;;;12.70;4.00;;;;;;;23.67;42.76;100175.70;109163;1255;68159;-70
2023/06/14 06:05:10;;;;;;;11.90;4.30;;;;;;;23.68;42.38;100176.30;109123;1255;72801;-70
2023/06/14 06:07:58;;;;;;;11.40;4.10;;;;;;;23.61;41.82;100179.57;109122;1255;56977;-66
2023/06/14 06:10:46;;;;;;;13.60;4.00;;;;;;;23.56;42.06;100180.69;109066;1255;60939;-64
2023/06/14 06:13:35;;;;;;;21.00;4.60;;;;;;;23.46;42.27;100180.67;109198;1256;70346;-59
2023/06/14 06:16:22;;;;;;;15.70;4.00;;;;;;;23.63;42.09;100183.16;109352;1255;67845;-65
2023/06/14 06:19:10;;;;;;;10.60;4.20;;;;;;;23.94;41.75;100182.56;109311;1255;72421;-61
2023/06/14 06:21:58;;;;;;;13.30;4.60;;;;;;;24.17;41.08;100181.33;109284;1255;58074;-62
2023/06/14 06:24:46;;;;;;;12.10;4.40;;;;;;;24.35;40.61;100186.74;109328;1255;59015;-61
2023/06/14 06:27:35;;;;;;;9.80;4.00;;;;;;;24.62;39.46;100189.85;109337;1256;70927;-69
2023/06/14 06:30:26;;;;;;;9.30;3.60;;;;;;;24.75;38.64;100192.25;109285;1255;68003;-70
2023/06/14 06:33:14;;;;;;;13.90;4.10;;;;;;;24.85;38.72;100188.65;109204;1255;70445;-72
2023/06/14 06:36:02;;;;;;;13.30;4.10;;;;;;;25.04;37.64;100194.11;109233;1255;56967;-72
2023/06/14 06:38:51;;;;;;;14.30;4.20;;;;;;;25.39;37.68;100189.86;109325;1255;60435;-71
2023/06/14 06:41:40;;;;;;;13.90;4.50;;;;;;;26.46;36.38;100191.34;109172;1255;70930;-73
2023/06/14 06:44:29;;;;;;;14.20;4.10;;;;;;;27.14;34.14;100186.27;109368;1256;67933;-71
2023/06/14 06:47:17;;;;;;;11.20;4.00;;;;;;;27.27;33.73;100194.92;109158;1254;71293;-71
2023/06/14 06:50:07;;;;;;;11.80;3.60;;;;;;;27.11;32.38;100198.75;109130;1254;56945;-69
2023/06/14 06:52:55;;;;;;;12.10;3.80;;;;;;;27.27;32.32;100197.13;109321;1254;60112;-69
2023/06/14 06:55:44;;;;;;;12.40;3.60;;;;;;;27.48;32.49;100201.38;109269;1254;71041;-72
2023/06/14 06:58:32;;;;;;;11.10;4.10;;;;;;;27.60;32.68;100202.76;109142;1254;66656;-70
2023/06/14 07:01:20;;;;;;;14.10;3.90;;;;;;;27.76;32.78;100202.34;109387;1254;72251;-70
2023/06/14 07:04:08;;;;;;;9.70;4.00;;;;;;;27.87;32.34;100207.37;109325;1254;58859;-70
2023/06/14 07:06:56;;;;;;;11.40;4.30;;;;;;;28.42;30.63;100207.01;109288;1254;60342;-71
2023/06/14 07:09:45;;;;;;;12.10;3.80;;;;;;;29.19;29.61;100203.95;109140;1256;72952;-71
2023/06/14 07:12:38;;;;;;;11.90;4.10;;;;;;;29.47;29.08;100205.96;109367;1253;66520;-72
2023/06/14 07:15:26;;;;;;;10.50;4.20;;;;;;;29.64;27.80;100206.98;109318;1254;72731;-71
2023/06/14 07:18:14;;;;;;;12.70;3.80;;;;;;;29.56;27.31;100204.23;109042;1255;239069;-71
2023/06/14 07:21:03;;;;;;;11.30;4.20;;;;;;;29.68;27.15;100205.38;109399;1256;59063;-73
2023/06/14 07:23:53;;;;;;;13.40;4.30;;;;;;;29.81;26.79;100204.69;109177;1254;70931;-71
2023/06/14 07:26:43;;;;;;;12.30;4.20;;;;;;;30.06;27.02;100206.84;109178;1254;66630;-73
2023/06/14 07:29:30;;;;;;;11.50;4.30;;;;;;;30.11;26.59;100210.02;109173;1254;73630;-71
2023/06/14 07:32:19;;;;;;;13.10;4.60;;;;;;;29.93;26.57;100211.66;109209;1254;57666;-73
2023/06/14 07:35:08;;;;;;;12.00;4.10;;;;;;;29.76;26.65;100211.27;109359;1254;59072;-69
2023/06/14 07:37:57;;;;;;;14.40;4.00;;;;;;;29.58;26.34;100208.02;109475;1255;71973;-71
2023/06/14 07:40:46;;;;;;;12.70;4.10;;;;;;;29.44;26.28;100206.95;109218;1254;68011;-73
2023/06/14 07:43:34;;;;;;;12.10;4.00;;;;;;;29.16;26.35;100208.84;109199;1254;71064;-71
2023/06/14 07:46:22;;;;;;;14.50;5.40;;;;;;;28.71;27.21;100209.94;109360;1254;56880;-72
2023/06/14 07:49:10;;;;;;;9.90;3.70;;;;;;;28.34;27.93;100210.71;109283;1254;58950;-72
2023/06/14 07:51:58;;;;;;;10.70;3.60;;;;;;;27.96;28.09;100209.20;109373;1254;72795;-70
2023/06/14 07:54:46;;;;;;;12.00;4.00;;;;;;;27.52;28.36;100210.66;109455;1256;67645;-71
2023/06/14 07:57:35;;;;;;;13.40;4.50;;;;;;;27.13;28.46;100210.50;109141;1254;70719;-74
2023/06/14 08:00:23;;;;;;;15.70;4.20;;;;;;;26.91;28.94;100212.64;109225;1256;58443;-72
2023/06/14 08:03:12;;;;;;;11.40;4.80;;;;;;;26.92;29.61;100207.97;109224;1254;60065;-72
2023/06/14 08:06:00;;;;;;;12.40;4.10;;;;;;;27.03;29.70;100207.41;109273;1255;72300;-73
2023/06/14 08:08:48;;;;;;;13.80;4.80;;;;;;;27.12;28.99;100206.21;109220;1254;68288;-72
2023/06/14 08:11:37;;;;;;;15.60;4.30;;;;;;;27.02;28.96;100203.11;109283;1255;72497;-71
2023/06/14 08:14:24;;;;;;;12.10;4.60;;;;;;;26.97;29.34;100203.55;109133;1254;57697;-71
2023/06/14 08:17:12;;;;;;;13.10;4.30;;;;;;;26.92;28.95;100204.98;109434;1255;60028;-71
2023/06/14 08:20:01;;;;;;;14.20;4.30;;;;;;;26.86;29.01;100207.14;109216;1254;72256;-72
2023/06/14 08:22:49;;;;;;;17.00;4.50;;;;;;;26.81;29.02;100206.55;109382;1254;66327;-72
2023/06/14 08:25:37;;;;;;;15.00;4.50;;;;;;;26.92;29.15;100208.42;109221;1254;71600;-74
2023/06/14 08:28:25;;;;;;;16.10;4.20;;;;;;;27.01;29.38;100210.73;109216;1254;58439;-69
2023/06/14 08:31:13;;;;;;;11.50;4.00;;;;;;;27.24;29.30;100211.23;109355;1254;59512;-76
2023/06/14 08:34:02;;;;;;;11.70;4.50;;;;;;;27.49;28.87;100216.11;109213;1257;70945;-78
2023/06/14 08:36:53;;;;;;;10.50;4.20;;;;;;;27.56;28.61;100211.79;109317;1254;66683;-77
2023/06/14 08:39:45;;;;;;;12.40;4.20;;;;;;;27.58;28.32;100212.53;109135;1254;72611;-75
2023/06/14 08:42:37;;;;;;;11.50;4.20;;;;;;;27.48;28.21;100214.88;109120;1256;56878;-77
2023/06/14 08:45:25;;;;;;;17.00;6.00;;;;;;;27.99;27.92;100216.95;109461;1255;59024;-75
2023/06/14 08:48:20;;;;;;;12.50;4.50;;;;;;;28.32;27.43;100220.20;109226;1254;71980;-74
2023/06/14 08:51:10;;;;;;;10.10;4.40;;;;;;;28.58;27.15;100218.36;109201;1254;67494;-77
2023/06/14 08:53:59;;;;;;;13.40;4.80;;;;;;;29.12;27.23;100221.01;109082;1256;72679;-75
2023/06/14 08:56:48;;;;;;;13.60;4.60;;;;;;;30.12;26.01;100221.76;109236;1254;57032;-76
2023/06/14 08:59:39;;;;;;;14.20;4.60;;;;;;;31.18;24.63;100217.83;109220;1254;58731;-72
2023/06/14 09:02:27;;;;;;;12.60;3.90;;;;;;;32.00;23.77;100214.11;109164;1254;71935;-78
2023/06/14 09:05:18;;;;;;;11.80;3.30;;;;;;;33.02;22.82;100213.14;109191;1254;67821;-76
2023/06/14 09:08:06;;;;;;;9.10;3.00;;;;;;;34.26;21.05;100211.27;109142;1254;72733;-73
2023/06/14 09:10:54;;;;;;;10.80;3.10;;;;;;;35.05;20.09;100204.82;109141;1254;57984;-74
2023/06/14 09:13:42;;;;;;;9.10;2.90;;;;;;;35.46;19.51;100199.84;109316;1256;58316;-75
2023/06/14 09:16:33;;;;;;;8.40;2.60;;;;;;;35.69;18.96;100199.45;109143;1254;70668;-78
2023/06/14 09:19:23;;;;;;;10.90;2.50;;;;;;;36.22;18.41;100195.34;109280;1254;66665;-78
2023/06/14 09:22:12;;;;;;;8.90;2.50;;;;;;;36.50;17.90;100192.71;109264;1254;72502;-76
2023/06/14 09:25:00;;;;;;;8.10;2.40;;;;;;;36.06;17.95;100195.49;109135;1254;57861;-76
2023/06/14 09:27:49;;;;;;;10.60;2.50;;;;;;;34.95;18.95;100195.16;109153;1254;60524;-78
2023/06/14 09:30:40;;;;;;;9.90;2.60;;;;;;;33.74;19.92;100196.37;109178;1254;72096;-76
2023/06/14 09:33:28;;;;;;;9.00;2.90;;;;;;;32.74;20.56;100197.94;109174;1254;66423;-72
2023/06/14 09:36:21;;;;;;;9.80;2.70;;;;;;;32.54;20.73;100195.88;109232;1254;71825;-75
2023/06/14 09:39:09;;;;;;;11.40;3.00;;;;;;;32.92;20.87;100187.88;109164;1254;58285;-78
2023/06/14 09:41:58;;;;;;;11.50;2.60;;;;;;;33.13;20.75;100187.80;109243;1255;58923;-74
2023/06/14 09:44:51;;;;;;;8.40;2.80;;;;;;;32.72;21.32;100190.75;109249;1254;70620;-76
2023/06/14 09:47:39;;;;;;;9.50;2.60;;;;;;;32.02;21.87;100186.68;109263;1255;66568;-76
2023/06/14 09:50:50;;;;;;;10.10;3.40;;;;;;;31.13;23.09;100192.34;109165;1254;71214;-76
2023/06/14 09:53:41;;;;;;;9.40;3.20;;;;;;;30.46;24.19;100199.25;109282;1254;57175;-76
2023/06/14 09:56:36;;;;;;;10.70;3.70;;;;;;;30.03;24.61;100197.09;109408;1254;58750;-77
2023/06/14 09:59:31;;;;;;;11.70;4.30;;;;;;;30.05;24.91;100192.50;109433;1253;72313;-78
2023/06/14 10:02:33;;;;;;;12.40;4.60;;;;;;;30.64;25.00;100185.22;109476;1254;66423;-79
2023/06/14 10:05:24;;;;;;;10.40;4.40;;;;;;;31.32;24.46;100186.26;109299;1254;71416;-77
2023/06/14 10:08:19;;;;;;;11.40;4.10;;;;;;;31.20;24.49;100180.11;109222;1254;56852;-78
2023/06/14 10:11:08;;;;;;;10.20;4.30;;;;;;;31.09;24.36;100184.17;109290;1259;59029;-76
2023/06/14 10:13:58;;;;;;;11.80;4.30;;;;;;;31.03;24.49;100181.33;109263;1254;72743;-75
2023/06/14 10:17:08;;;;;;;11.50;3.80;;;;;;;31.04;24.70;100178.80;109287;1255;66533;-77
2023/06/14 10:20:34;;;;;;;12.30;3.60;;;;;;;31.98;23.83;100177.33;109392;1254;71213;-76
2023/06/14 10:23:26;;;;;;;9.60;3.50;;;;;;;33.06;21.85;100174.91;109376;1254;57651;-81
2023/06/14 10:26:22;;;;;;;10.40;3.40;;;;;;;33.72;20.81;100178.45;109200;1255;58713;-79
2023/06/14 10:29:10;;;;;;;12.20;3.30;;;;;;;33.80;20.29;100172.19;109227;1259;70974;-80
2023/06/14 10:32:00;;;;;;;10.70;3.50;;;;;;;33.21;20.28;100172.41;109230;1257;66412;-79
2023/06/14 10:35:08;;;;;;;11.60;4.10;;;;;;;32.70;20.56;100175.27;109211;1255;71050;-74
2023/06/14 10:38:07;;;;;;;9.60;3.90;;;;;;;32.51;20.88;100171.64;109195;1254;56998;-78
2023/06/14 10:40:56;;;;;;;15.40;4.70;;;;;;;32.31;21.33;100167.17;109238;1254;58837;-76
2023/06/14 10:43:43;;;;;;;12.40;4.30;;;;;;;31.87;21.64;100167.59;109279;1257;72235;-76
2023/06/14 10:46:32;;;;;;;12.40;4.20;;;;;;;31.59;21.46;100169.35;109218;1259;67921;-77
2023/06/14 10:49:41;;;;;;;11.10;4.10;;;;;;;30.99;22.08;100170.05;109091;1259;72863;-77
2023/06/14 10:52:37;;;;;;;13.70;4.50;;;;;;;30.41;22.44;100171.10;109230;1257;56919;-79
2023/06/14 10:55:27;;;;;;;15.60;5.20;;;;;;;30.35;22.89;100173.34;109370;1254;60508;-75
2023/06/14 10:58:15;;;;;;;46.10;8.10;;;;;;;30.26;23.39;100171.92;109239;1254;72895;-73
2023/06/14 11:01:03;;;;;;;25.50;7.00;;;;;;;30.50;23.34;100171.19;109267;1259;67829;-75
2023/06/14 11:03:55;;;;;;;18.00;6.60;;;;;;;30.58;23.65;100165.40;109168;1254;72440;-73
2023/06/14 11:06:52;;;;;;;18.60;6.00;;;;;;;30.18;23.48;100170.36;109224;1254;57700;-76
2023/06/14 11:10:36;;;;;;;14.50;5.20;;;;;;;29.74;23.76;100165.73;109278;1254;60075;-78
2023/06/14 11:13:26;;;;;;;10.30;3.20;;;;;;;29.56;24.22;100169.76;109344;1254;70909;-78
2023/06/14 11:16:21;;;;;;;10.50;3.40;;;;;;;29.24;24.60;100165.79;109277;1254;67286;-76
2023/06/14 11:19:10;;;;;;;11.00;3.50;;;;;;;28.81;25.56;100163.75;109234;1254;72615;-77
2023/06/14 11:21:59;;;;;;;10.40;3.10;;;;;;;28.43;26.82;100164.34;109288;1254;58131;-76
2023/06/14 11:24:50;;;;;;;9.90;3.50;;;;;;;28.05;26.91;100164.54;109338;1254;59076;-77
2023/06/14 11:27:42;;;;;;;7.80;3.50;;;;;;;27.69;27.64;100169.17;109406;1254;71764;-73
2023/06/14 11:30:33;;;;;;;9.10;2.90;;;;;;;27.32;28.29;100168.04;109313;1254;67250;-73
2023/06/14 11:33:24;;;;;;;7.40;2.60;;;;;;;26.95;28.24;100165.98;109412;1254;71453;-76
2023/06/14 11:36:15;;;;;;;10.80;3.40;;;;;;;26.65;29.42;100167.85;109192;1254;57105;-73
2023/06/14 11:39:08;;;;;;;9.70;3.10;;;;;;;26.75;29.73;100166.16;109316;1254;59500;-72
2023/06/14 11:42:01;;;;;;;8.20;3.10;;;;;;;26.74;29.68;100166.96;109276;1254;70695;-73
2023/06/14 11:44:50;;;;;;;7.80;3.30;;;;;;;26.75;30.33;100165.20;109081;1257;67998;-75
2023/06/14 11:47:39;;;;;;;10.60;3.40;;;;;;;26.71;30.67;100162.52;108998;1259;72727;-72
2023/06/14 11:50:28;;;;;;;8.80;3.40;;;;;;;26.38;31.20;100161.98;108990;1259;57048;-77
2023/06/14 11:53:16;;;;;;;11.90;3.10;;;;;;;26.16;31.51;100160.96;108893;1260;60136;-72
2023/06/14 11:56:05;;;;;;;8.50;3.10;;;;;;;25.97;31.59;100165.41;108981;1259;72755;-72
2023/06/14 11:58:57;;;;;;;8.90;3.00;;;;;;;25.75;31.93;100163.98;108936;1260;68157;-71
2023/06/14 12:01:45;;;;;;;13.60;3.40;;;;;;;25.64;31.83;100161.34;109044;1260;72589;-76
2023/06/14 12:04:33;;;;;;;8.60;3.00;;;;;;;25.73;31.48;100156.34;108878;1259;58010;-73
2023/06/14 12:07:22;;;;;;;8.40;2.90;;;;;;;25.80;30.76;100149.48;109032;1259;60655;-72
2023/06/14 12:10:10;;;;;;;9.40;3.30;;;;;;;25.83;30.78;100148.80;108890;1260;70701;-76
2023/06/14 12:12:59;;;;;;;12.50;3.20;;;;;;;25.81;29.89;100147.96;108952;1260;67757;-75
2023/06/14 12:15:56;;;;;;;10.80;3.10;;;;;;;25.75;29.97;100145.90;109035;1257;71898;-72
2023/06/14 12:18:43;;;;;;;10.80;3.50;;;;;;;25.48;29.77;100143.70;109183;1254;57932;-73
2023/06/14 12:21:33;;;;;;;8.40;3.30;;;;;;;25.32;30.00;100142.55;109245;1254;59528;-74
2023/06/14 12:24:20;;;;;;;9.20;3.00;;;;;;;25.27;30.75;100142.25;109294;1254;70169;-73
2023/06/14 12:27:11;;;;;;;11.50;2.90;;;;;;;25.29;30.01;100139.81;109155;1254;67928;-72
2023/06/14 12:30:05;;;;;;;11.80;3.20;;;;;;;25.45;29.45;100139.11;109232;1254;72476;-73
2023/06/14 12:32:52;;;;;;;14.20;3.30;;;;;;;25.43;29.83;100142.39;109231;1254;57034;-76
2023/06/14 12:35:41;;;;;;;9.80;3.40;;;;;;;25.45;30.05;100139.20;109274;1255;59006;-74
2023/06/14 12:38:29;;;;;;;8.10;3.20;;;;;;;25.44;29.50;100141.59;109171;1258;72387;-72
2023/06/14 12:41:17;;;;;;;9.10;2.90;;;;;;;25.45;29.55;100142.13;109241;1254;67707;-73
2023/06/14 12:44:05;;;;;;;12.00;2.90;;;;;;;25.47;30.39;100143.67;109355;1254;72440;-72
2023/06/14 12:46:54;;;;;;;13.50;3.20;;;;;;;25.37;30.20;100140.35;109354;1254;57678;-78
2023/06/14 12:49:42;;;;;;;11.50;3.10;;;;;;;25.30;30.05;100136.83;109165;1254;58721;-75
2023/06/14 12:52:30;;;;;;;8.10;2.60;;;;;;;25.20;29.90;100136.48;109291;1254;72420;-71
2023/06/14 12:55:20;;;;;;;10.60;3.00;;;;;;;25.12;31.32;100137.59;109349;1254;66419;-74
2023/06/14 12:58:08;;;;;;;10.80;3.30;;;;;;;25.05;31.70;100142.11;109308;1254;72683;-74